createdAt,value
2018-09-10T00:00:37.914Z,73.20
2018-09-10T00:03:06.590Z,73.46
2018-09-10T00:05:35.275Z,73.25
2018-09-10T00:08:03.924Z,74.57
2018-09-10T00:10:32.557Z,74.33
2018-09-10T00:13:01.457Z,74.59
2018-09-10T00:15:30.144Z,75.61
2018-09-10T00:17:58.762Z,75.27
2018-09-10T00:20:27.354Z,75.03
2018-09-10T00:22:56.150Z,76.28
2018-09-10T00:25:24.797Z,76.31
2018-09-10T00:27:53.506Z,76.73
2018-09-10T00:30:22.196Z,76.66
2018-09-10T00:32:50.793Z,76.56
2018-09-10T00:35:19.630Z,76.82
2018-09-10T00:37:48.400Z,77.55
2018-09-10T00:40:17.052Z,77.25
2018-09-10T00:42:46.636Z,77.76
2018-09-10T00:45:15.241Z,78.03
2018-09-10T00:47:43.884Z,78.63
2018-09-10T00:50:12.531Z,78.28
2018-09-10T00:52:41.219Z,78.18
2018-09-10T00:55:09.829Z,78.75
2018-09-10T00:57:39.076Z,77.42
2018-09-10T01:00:08.174Z,77.63
2018-09-10T01:02:37.049Z,78.08
2018-09-10T01:05:05.669Z,79.53
2018-09-10T01:07:34.276Z,79.25
2018-09-10T01:10:04.047Z,79.56
2018-09-10T01:12:32.750Z,80.24
2018-09-10T01:15:01.397Z,81.14
2018-09-10T01:17:30.737Z,80.53
2018-09-10T01:20:00.000Z,81.11
2018-09-10T01:22:28.588Z,80.79
2018-09-10T01:24:57.585Z,81.17
2018-09-10T01:27:26.184Z,81.27
2018-09-10T01:29:54.926Z,82.03
2018-09-10T01:32:23.554Z,81.92
2018-09-10T01:34:57.570Z,82.51
2018-09-10T01:37:26.940Z,82.71
2018-09-10T01:39:55.564Z,82.38
2018-09-10T01:42:24.220Z,83.03
2018-09-10T01:44:53.010Z,82.34
2018-09-10T01:47:21.748Z,83.31
2018-09-10T01:49:50.419Z,83.40
2018-09-10T01:52:19.016Z,84.16
2018-09-10T01:54:47.927Z,84.56
2018-09-10T01:57:16.604Z,84.81
2018-09-10T01:59:45.305Z,84.79
2018-09-10T02:02:14.000Z,84.77
2018-09-10T02:04:42.611Z,84.33
2018-09-10T02:07:11.412Z,84.65
2018-09-10T02:09:40.600Z,83.78
2018-09-10T02:12:14.471Z,83.85
2018-09-10T02:14:43.189Z,82.98
2018-09-10T02:17:11.887Z,83.65
2018-09-10T02:19:40.756Z,83.53
2018-09-10T02:22:09.352Z,84.06
2018-09-10T02:24:37.998Z,83.79
2018-09-10T02:27:06.945Z,83.86
2018-09-10T02:29:35.828Z,83.98
2018-09-10T02:32:04.532Z,83.06
2018-09-10T02:34:33.121Z,84.07
2018-09-10T02:37:01.792Z,84.08
2018-09-10T02:39:30.450Z,84.30
2018-09-10T02:41:59.066Z,83.70
2018-09-10T02:44:27.882Z,84.74
2018-09-10T02:46:56.588Z,84.03
2018-09-10T02:49:25.186Z,83.95
2018-09-10T02:51:53.807Z,84.47
2018-09-10T02:54:22.573Z,84.71
2018-09-10T02:56:51.718Z,84.07
2018-09-10T02:59:20.335Z,84.53
2018-09-10T03:01:48.953Z,85.08
2018-09-10T03:04:17.607Z,84.26
2018-09-10T03:06:47.140Z,85.35
2018-09-10T03:09:15.817Z,85.96
2018-09-10T03:11:44.425Z,85.40
2018-09-10T03:14:13.081Z,85.66
2018-09-10T03:16:41.691Z,85.46
2018-09-10T03:19:10.329Z,85.92
2018-09-10T03:21:39.172Z,86.43
2018-09-10T03:24:07.980Z,86.27
2018-09-10T03:26:36.748Z,86.30
2018-09-10T03:29:05.448Z,87.02
2018-09-10T03:31:34.082Z,87.33
2018-09-10T03:34:02.685Z,86.58
2018-09-10T03:36:31.272Z,86.84
2018-09-10T03:38:59.908Z,86.96
2018-09-10T03:41:28.595Z,86.27
2018-09-10T03:43:57.274Z,86.94
2018-09-10T03:46:25.884Z,87.12
2018-09-10T03:48:54.485Z,88.03
2018-09-10T03:51:23.144Z,87.65
2018-09-10T03:53:51.728Z,88.42
2018-09-10T03:56:20.336Z,88.13
2018-09-10T03:58:49.288Z,88.60
2018-09-10T04:01:17.955Z,88.74
2018-09-10T04:03:46.616Z,88.41
2018-09-10T04:06:15.835Z,88.01
2018-09-10T04:08:44.562Z,87.87
2018-09-10T04:11:13.252Z,88.50
2018-09-10T04:13:41.879Z,88.37
2018-09-10T04:16:10.577Z,88.87
2018-09-10T04:18:39.409Z,89.42
2018-09-10T04:21:08.053Z,89.50
2018-09-10T04:23:36.660Z,89.71
2018-09-10T04:26:05.671Z,89.06
2018-09-10T04:28:34.432Z,89.43
2018-09-10T04:31:03.051Z,88.99
2018-09-10T04:33:31.681Z,89.15
2018-09-10T04:36:00.294Z,89.41
2018-09-10T04:38:29.204Z,89.30
2018-09-10T04:40:57.881Z,88.86
2018-09-10T04:43:26.476Z,89.36
2018-09-10T04:45:55.796Z,88.68
2018-09-10T04:48:24.493Z,86.95
2018-09-10T04:50:53.273Z,86.60
2018-09-10T04:53:21.876Z,85.96
2018-09-10T04:55:50.578Z,86.21
2018-09-10T04:58:19.214Z,86.44
2018-09-10T05:00:47.822Z,85.77
2018-09-10T05:03:16.565Z,85.79
2018-09-10T05:05:45.341Z,85.98
2018-09-10T05:08:13.954Z,85.73
2018-09-10T05:10:42.545Z,85.50
2018-09-10T05:13:11.149Z,84.44
2018-09-10T05:15:39.924Z,84.81
2018-09-10T05:18:09.959Z,84.03
2018-09-10T05:20:38.594Z,84.07
2018-09-10T05:23:07.339Z,82.98
2018-09-10T05:25:35.961Z,81.62
2018-09-10T05:28:05.433Z,81.64
2018-09-10T05:30:34.182Z,80.88
2018-09-10T05:33:02.936Z,80.78
2018-09-10T05:35:31.538Z,80.06
2018-09-10T05:38:00.145Z,79.46
2018-09-10T05:40:29.557Z,78.51
2018-09-10T05:42:58.149Z,78.42
2018-09-10T05:45:26.813Z,76.32
2018-09-10T05:47:55.521Z,76.25
2018-09-10T05:50:24.220Z,74.45
2018-09-10T05:52:53.132Z,73.21
2018-09-10T05:55:21.807Z,73.36
2018-09-10T05:57:50.456Z,72.33
2018-09-10T06:00:20.045Z,71.15
2018-09-10T06:02:48.853Z,70.15
2018-09-10T06:05:17.509Z,68.52
2018-09-10T06:07:46.214Z,67.76
2018-09-10T06:10:15.132Z,66.07
2018-09-10T06:12:43.741Z,64.62
2018-09-10T06:15:13.952Z,60.34
2018-09-10T06:17:42.608Z,55.06
2018-09-10T06:20:11.193Z,50.45
2018-09-10T06:22:40.699Z,47.24
2018-09-10T06:25:09.987Z,44.60
2018-09-10T06:27:39.183Z,42.82
2018-09-10T06:30:08.443Z,41.25
2018-09-10T06:32:38.488Z,38.51
2018-09-10T06:35:07.732Z,37.63
2018-09-10T06:37:37.033Z,34.61
2018-09-10T06:40:07.732Z,33.47
2018-09-10T06:42:37.129Z,32.26
2018-09-10T06:45:06.377Z,31.12
2018-09-10T06:47:35.751Z,29.26
2018-09-10T06:50:05.299Z,28.52
2018-09-10T06:52:34.617Z,27.61
2018-09-10T06:55:03.937Z,28.63
2018-09-10T06:57:33.141Z,26.56
2018-09-10T07:00:02.380Z,27.03
2018-09-10T07:02:31.608Z,24.35
2018-09-10T07:05:07.432Z,24.99
2018-09-10T07:07:36.657Z,24.63
2018-09-10T07:10:06.324Z,24.06
2018-09-10T07:12:35.616Z,23.89
2018-09-10T07:15:05.509Z,24.09
2018-09-10T07:17:34.704Z,24.00
2018-09-10T07:20:04.347Z,23.61
2018-09-10T07:22:33.612Z,23.43
2018-09-10T07:25:02.826Z,23.59
2018-09-10T07:27:32.265Z,23.85
2018-09-10T07:30:01.452Z,23.67
2018-09-10T07:32:30.692Z,23.54
2018-09-10T07:34:59.603Z,22.83
2018-09-10T07:37:28.568Z,22.27
2018-09-10T07:39:57.527Z,21.57
2018-09-10T07:42:27.041Z,22.02
2018-09-10T07:44:56.060Z,22.12
2018-09-10T07:47:25.093Z,21.70
2018-09-10T07:49:54.012Z,21.49
2018-09-10T07:52:22.901Z,21.21
2018-09-10T07:54:52.157Z,21.02
2018-09-10T07:57:21.109Z,19.56
2018-09-10T07:59:49.976Z,19.44
2018-09-10T08:02:18.926Z,19.08
2018-09-10T08:04:47.868Z,19.76
2018-09-10T08:07:16.788Z,18.10
2018-09-10T08:09:45.685Z,19.17
2018-09-10T08:12:14.728Z,19.48
2018-09-10T08:14:43.698Z,19.18
2018-09-10T08:17:12.594Z,18.52
2018-09-10T08:19:41.473Z,18.02
2018-09-10T08:22:10.444Z,18.33
2018-09-10T08:24:39.308Z,17.94
2018-09-10T08:27:08.237Z,17.39
2018-09-10T08:29:37.104Z,17.92
2018-09-10T08:32:06.036Z,18.20
2018-09-10T08:34:35.013Z,17.84
2018-09-10T08:37:04.529Z,18.24
2018-09-10T08:39:33.651Z,18.18
2018-09-10T08:42:02.646Z,18.60
2018-09-10T08:44:31.954Z,21.19
2018-09-10T08:47:00.844Z,21.94
2018-09-10T08:49:29.713Z,24.32
2018-09-10T08:51:58.965Z,25.17
2018-09-10T08:54:28.350Z,25.90
2018-09-10T08:56:57.709Z,27.75
2018-09-10T08:59:26.907Z,28.49
2018-09-10T09:01:56.240Z,29.29
2018-09-10T09:04:25.598Z,30.78
2018-09-10T09:06:54.797Z,32.29
2018-09-10T09:09:24.004Z,32.14
2018-09-10T09:11:53.191Z,33.80
2018-09-10T09:14:22.462Z,33.30
2018-09-10T09:16:51.655Z,33.89
2018-09-10T09:19:20.844Z,33.10
2018-09-10T09:21:50.069Z,33.72
2018-09-10T09:24:19.244Z,33.90
2018-09-10T09:26:48.422Z,34.03
2018-09-10T09:29:17.630Z,33.81
2018-09-10T09:31:46.805Z,34.73
2018-09-10T09:34:15.984Z,32.06
2018-09-10T09:36:50.464Z,35.01
2018-09-10T09:39:24.785Z,36.17
2018-09-10T09:41:59.068Z,35.83
2018-09-10T09:44:33.724Z,33.77
2018-09-10T09:47:02.946Z,34.20
2018-09-10T09:49:32.124Z,36.79
2018-09-10T09:52:01.326Z,35.63
2018-09-10T09:54:31.197Z,34.44
2018-09-10T09:57:00.348Z,33.81
2018-09-10T09:59:29.526Z,34.87
2018-09-10T10:02:03.981Z,36.21
2018-09-10T10:04:33.234Z,34.38
2018-09-10T10:07:04.218Z,35.70
2018-09-10T10:09:33.428Z,35.84
2018-09-10T10:12:02.936Z,36.62
2018-09-10T10:14:32.680Z,34.39
2018-09-10T10:17:01.841Z,34.97
2018-09-10T10:19:31.000Z,35.56
2018-09-10T10:22:00.329Z,33.92
2018-09-10T10:24:29.633Z,33.66
2018-09-10T10:26:58.788Z,35.64
2018-09-10T10:32:03.426Z,35.65
2018-09-10T10:34:32.645Z,35.14
2018-09-10T10:37:01.816Z,33.02
2018-09-10T10:39:30.992Z,34.15
2018-09-10T10:42:00.157Z,34.86
2018-09-10T10:44:29.308Z,33.73
2018-09-10T10:46:58.515Z,34.11
2018-09-10T10:49:27.686Z,34.96
2018-09-10T10:51:56.920Z,34.61
2018-09-10T10:54:26.098Z,33.86
2018-09-10T10:56:55.272Z,34.06
2018-09-10T10:59:24.489Z,33.91
2018-09-10T11:01:53.653Z,33.89
2018-09-10T11:04:23.083Z,35.26
2018-09-10T11:06:52.776Z,34.24
2018-09-10T11:09:22.032Z,35.20
2018-09-10T11:11:51.268Z,34.08
2018-09-10T11:14:20.465Z,34.97
2018-09-10T11:16:49.964Z,35.65
2018-09-10T11:19:19.194Z,35.17
2018-09-10T11:21:48.380Z,34.97
2018-09-10T11:24:17.640Z,34.04
2018-09-10T11:26:46.816Z,34.60
2018-09-10T11:29:16.129Z,36.27
2018-09-10T11:31:45.300Z,35.53
2018-09-10T11:34:14.512Z,35.26
2018-09-10T11:36:43.750Z,34.14
2018-09-10T11:39:13.067Z,34.09
2018-09-10T11:41:42.267Z,33.83
2018-09-10T11:44:11.655Z,34.51
2018-09-10T11:46:41.257Z,35.20
2018-09-10T11:49:10.590Z,36.10
2018-09-10T11:51:40.168Z,36.43
2018-09-10T11:54:09.529Z,35.55
2018-09-10T11:56:38.702Z,36.04
2018-09-10T11:59:07.891Z,36.79
2018-09-10T12:01:37.136Z,34.48
2018-09-10T12:04:07.533Z,35.47
2018-09-10T12:06:36.704Z,35.75
2018-09-10T12:09:08.205Z,37.56
2018-09-10T12:11:37.388Z,36.38
2018-09-10T12:14:06.608Z,36.79
2018-09-10T12:16:36.083Z,36.69
2018-09-10T12:19:05.354Z,34.39
2018-09-10T12:21:34.565Z,36.11
2018-09-10T12:24:03.913Z,35.03
2018-09-10T12:26:33.144Z,36.35
2018-09-10T12:29:02.397Z,34.48
2018-09-10T12:31:31.551Z,33.70
2018-09-10T12:34:00.764Z,34.90
2018-09-10T12:36:29.928Z,35.69
2018-09-10T12:38:59.125Z,35.04
2018-09-10T12:41:28.320Z,35.21
2018-09-10T12:43:57.573Z,35.39
2018-09-10T12:46:26.940Z,34.67
2018-09-10T12:48:56.365Z,35.98
2018-09-10T12:51:25.728Z,36.90
2018-09-10T12:53:54.956Z,36.02
2018-09-10T12:56:24.141Z,35.56
2018-09-10T12:58:53.632Z,35.47
2018-09-10T13:01:22.960Z,34.51
2018-09-10T13:03:52.400Z,36.14
2018-09-10T13:06:21.621Z,33.53
2018-09-10T13:08:50.951Z,33.59
2018-09-10T13:11:20.371Z,35.29
2018-09-10T13:13:49.742Z,35.13
2018-09-10T13:16:18.976Z,34.28
2018-09-10T13:18:48.568Z,36.04
2018-09-10T13:21:17.800Z,34.08
2018-09-10T13:23:47.315Z,33.93
2018-09-10T13:26:16.637Z,35.09
2018-09-10T13:28:45.826Z,35.17
2018-09-10T13:31:15.678Z,35.27
2018-09-10T13:33:44.986Z,35.02
2018-09-10T13:36:14.214Z,34.93
2018-09-10T13:38:43.438Z,35.49
2018-09-10T13:41:12.627Z,34.60
2018-09-10T13:43:41.830Z,34.72
2018-09-10T13:46:11.079Z,34.74
2018-09-10T13:48:40.372Z,36.72
2018-09-10T13:51:09.534Z,36.69
2018-09-10T13:53:38.734Z,36.91
2018-09-10T13:56:07.918Z,36.59
2018-09-10T13:58:37.106Z,36.85
2018-09-10T14:01:06.438Z,36.37
2018-09-10T14:03:35.639Z,36.27
2018-09-10T14:06:04.836Z,37.38
2018-09-10T14:08:34.162Z,36.84
2018-09-10T14:11:03.544Z,35.34
2018-09-10T14:13:32.967Z,36.82
2018-09-10T14:16:02.303Z,36.65
2018-09-10T14:18:31.721Z,36.77
2018-09-10T14:21:01.135Z,37.88
2018-09-10T14:23:30.550Z,38.24
2018-09-10T14:25:59.816Z,38.62
2018-09-10T14:28:29.061Z,38.33
2018-09-10T14:30:58.264Z,38.22
2018-09-10T14:33:27.436Z,39.46
2018-09-10T14:35:56.656Z,38.29
2018-09-10T14:38:25.874Z,36.39
2018-09-10T14:40:55.994Z,36.18
2018-09-10T14:43:25.316Z,36.73
2018-09-10T14:45:54.516Z,35.65
2018-09-10T14:48:23.792Z,35.74
2018-09-10T14:50:52.995Z,35.74
2018-09-10T14:53:22.176Z,35.48
2018-09-10T14:55:51.369Z,34.41
2018-09-10T14:58:20.650Z,33.83
2018-09-10T15:00:50.313Z,34.51
2018-09-10T15:03:19.642Z,36.73
2018-09-10T15:05:48.898Z,37.23
2018-09-10T15:08:18.308Z,36.67
2018-09-10T15:10:47.533Z,36.12
2018-09-10T15:13:17.071Z,35.97
2018-09-10T15:15:46.329Z,34.25
2018-09-10T15:18:15.610Z,35.77
2018-09-10T15:20:45.104Z,35.16
2018-09-10T15:23:14.353Z,35.37
2018-09-10T15:25:43.597Z,36.26
2018-09-10T15:28:12.927Z,36.80
2018-09-10T15:30:42.142Z,36.37
2018-09-10T15:33:11.368Z,34.86
2018-09-10T15:35:40.658Z,34.95
2018-09-10T15:38:09.870Z,34.04
2018-09-10T15:40:39.265Z,34.71
2018-09-10T15:43:08.672Z,35.09
2018-09-10T15:45:37.917Z,35.26
2018-09-10T15:48:07.117Z,34.27
2018-09-10T15:50:36.417Z,36.29
2018-09-10T15:53:05.668Z,37.12
2018-09-10T15:55:34.889Z,38.25
2018-09-10T15:58:04.164Z,39.46
2018-09-10T16:00:33.367Z,38.21
2018-09-10T16:03:02.601Z,39.40
2018-09-10T16:05:31.826Z,38.60
2018-09-10T16:08:01.045Z,38.61
2018-09-10T16:10:30.290Z,38.95
2018-09-10T16:12:59.564Z,39.15
2018-09-10T16:15:28.790Z,39.29
2018-09-10T16:17:58.018Z,39.14
2018-09-10T16:20:27.381Z,39.70
2018-09-10T16:22:56.688Z,40.49
2018-09-10T16:25:25.915Z,40.79
2018-09-10T16:27:55.136Z,41.40
2018-09-10T16:30:24.396Z,43.03
2018-09-10T16:32:53.671Z,43.07
2018-09-10T16:35:22.967Z,42.74
2018-09-10T16:37:52.185Z,43.31
2018-09-10T16:40:21.391Z,43.44
2018-09-10T16:42:50.548Z,43.89
2018-09-10T16:45:19.778Z,45.11
2018-09-10T16:47:48.995Z,45.57
2018-09-10T16:50:18.172Z,46.11
2018-09-10T16:52:54.147Z,46.81
2018-09-10T16:55:23.322Z,47.38
2018-09-10T16:57:52.502Z,47.01
2018-09-10T17:00:21.700Z,47.13
2018-09-10T17:02:50.932Z,47.97
2018-09-10T17:05:20.125Z,47.86
2018-09-10T17:07:49.299Z,48.30
2018-09-10T17:10:18.458Z,48.36
2018-09-10T17:12:47.739Z,49.26
2018-09-10T17:15:16.932Z,49.88
2018-09-10T17:17:46.157Z,49.63
2018-09-10T17:20:15.376Z,52.80
2018-09-10T17:22:44.614Z,54.00
2018-09-10T17:25:13.960Z,56.05
2018-09-10T17:27:43.112Z,58.24
2018-09-10T17:30:12.367Z,58.83
2018-09-10T17:32:41.768Z,59.12
2018-09-10T17:35:10.964Z,58.65
2018-09-10T17:37:40.160Z,58.67
2018-09-10T17:40:09.439Z,57.61
2018-09-10T17:42:38.656Z,56.39
2018-09-10T17:45:07.864Z,56.77
2018-09-10T17:47:37.053Z,57.84
2018-09-10T17:50:06.252Z,59.41
2018-09-10T17:52:35.420Z,59.39
2018-09-10T17:55:04.645Z,60.14
2018-09-10T17:57:33.805Z,60.22
2018-09-10T18:00:03.085Z,60.54
2018-09-10T18:02:32.282Z,60.42
2018-09-10T18:05:01.460Z,60.38
2018-09-10T18:07:30.686Z,60.46
2018-09-10T18:09:59.872Z,60.08
2018-09-10T18:12:29.059Z,59.04
2018-09-10T18:14:58.305Z,60.21
2018-09-10T18:17:27.590Z,59.66
2018-09-10T18:19:56.801Z,58.02
2018-09-10T18:22:26.112Z,57.60
2018-09-10T18:24:55.355Z,58.57
2018-09-10T18:27:24.733Z,59.53
2018-09-10T18:29:53.909Z,58.58
2018-09-10T18:32:23.107Z,58.85
2018-09-10T18:34:52.261Z,58.53
2018-09-10T18:37:21.458Z,57.51
2018-09-10T18:39:50.632Z,58.76
2018-09-10T18:42:19.902Z,58.92
2018-09-10T18:44:49.223Z,59.03
2018-09-10T18:47:18.441Z,60.41
2018-09-10T18:49:47.608Z,60.93
2018-09-10T18:52:16.785Z,61.81
2018-09-10T18:54:45.956Z,62.11
2018-09-10T18:57:14.632Z,62.24
2018-09-10T18:59:43.855Z,63.11
2018-09-10T19:02:13.088Z,63.59
2018-09-10T19:04:42.309Z,63.92
2018-09-10T19:07:11.491Z,64.55
2018-09-10T19:09:40.734Z,64.29
2018-09-10T19:12:10.077Z,64.45
2018-09-10T19:14:39.357Z,65.51
2018-09-10T19:17:08.060Z,65.90
2018-09-10T19:19:37.313Z,66.19
2018-09-10T19:22:05.909Z,65.56
2018-09-10T19:24:35.072Z,66.41
2018-09-10T19:27:04.277Z,66.69
2018-09-10T19:29:33.450Z,67.06
2018-09-10T19:32:02.624Z,68.01
2018-09-10T19:34:31.236Z,68.16
2018-09-10T19:37:00.224Z,68.99
2018-09-10T19:39:28.943Z,70.02
2018-09-10T19:41:57.657Z,70.48
2018-09-10T19:44:26.244Z,70.18
2018-09-10T19:46:55.512Z,70.52
2018-09-10T19:49:24.179Z,69.65
2018-09-10T19:51:52.780Z,69.51
2018-09-10T19:54:22.372Z,70.62
2018-09-10T19:56:50.992Z,71.28
2018-09-10T19:59:19.664Z,71.86
2018-09-10T20:01:48.466Z,72.35
2018-09-10T20:04:17.334Z,72.19
2018-09-10T20:06:45.961Z,71.84
2018-09-10T20:09:14.541Z,71.56
2018-09-10T20:11:43.175Z,71.12
2018-09-10T20:14:11.811Z,70.52
2018-09-10T20:16:41.061Z,69.87
2018-09-10T20:19:09.672Z,71.02
2018-09-10T20:21:38.532Z,70.38
2018-09-10T20:24:07.756Z,71.30
2018-09-10T20:26:36.677Z,71.26
2018-09-10T20:29:05.912Z,71.78
2018-09-10T20:31:34.542Z,72.05
2018-09-10T20:34:09.721Z,72.09
2018-09-10T20:36:39.361Z,70.97
2018-09-10T20:39:10.868Z,71.03
2018-09-10T20:41:39.491Z,70.95
2018-09-10T20:44:08.884Z,70.54
2018-09-10T20:46:37.740Z,69.73
2018-09-10T20:49:07.192Z,70.95
2018-09-10T20:51:35.832Z,72.67
2018-09-10T20:54:04.460Z,72.94
2018-09-10T20:56:33.068Z,72.76
2018-09-10T20:59:01.777Z,72.73
2018-09-10T21:01:30.368Z,72.24
2018-09-10T21:03:59.711Z,71.31
2018-09-10T21:06:28.979Z,71.57
2018-09-10T21:08:57.971Z,72.07
2018-09-10T21:11:26.562Z,72.59
2018-09-10T21:13:55.192Z,73.29
2018-09-10T21:16:23.909Z,73.45
2018-09-10T21:18:52.572Z,73.66
2018-09-10T21:21:21.192Z,73.90
2018-09-10T21:23:49.903Z,74.70
2018-09-10T21:26:18.523Z,74.33
2018-09-10T21:28:47.144Z,74.12
2018-09-10T21:31:15.764Z,74.12
2018-09-10T21:33:44.356Z,74.25
2018-09-10T21:36:12.970Z,73.87
2018-09-10T21:38:41.584Z,74.49
2018-09-10T21:41:10.203Z,74.19
2018-09-10T21:43:38.765Z,74.72
2018-09-10T21:46:07.737Z,74.25
2018-09-10T21:48:36.332Z,74.32
2018-09-10T21:51:04.964Z,73.09
2018-09-10T21:53:33.647Z,73.41
2018-09-10T21:56:02.406Z,73.21
2018-09-10T21:58:30.993Z,73.46
2018-09-10T22:00:59.580Z,73.72
2018-09-10T22:03:28.710Z,73.30
2018-09-10T22:05:57.408Z,72.70
2018-09-10T22:08:26.063Z,73.61
2018-09-10T22:10:54.712Z,74.27
2018-09-10T22:13:23.316Z,74.98
2018-09-10T22:15:51.915Z,74.92
2018-09-10T22:18:20.801Z,75.24
2018-09-10T22:20:49.609Z,76.08
2018-09-10T22:23:18.244Z,75.98
2018-09-10T22:25:46.855Z,76.44
2018-09-10T22:28:15.467Z,76.65
2018-09-10T22:30:44.131Z,75.60
2018-09-10T22:33:12.733Z,75.83
2018-09-10T22:35:41.328Z,75.13
2018-09-10T22:38:09.912Z,75.60
2018-09-10T22:40:38.504Z,76.00
2018-09-10T22:43:07.164Z,76.32
2018-09-10T22:45:35.760Z,75.62
2018-09-10T22:48:04.405Z,75.23
2018-09-10T22:50:32.989Z,75.00
2018-09-10T22:53:01.612Z,74.31
2018-09-10T22:55:30.264Z,74.21
2018-09-10T22:57:58.872Z,74.03
2018-09-10T23:00:27.463Z,73.51
2018-09-10T23:02:56.044Z,73.67
2018-09-10T23:05:24.733Z,73.87
2018-09-10T23:07:53.380Z,73.46
2018-09-10T23:10:22.024Z,72.88
2018-09-10T23:12:50.653Z,72.81
2018-09-10T23:15:19.256Z,72.88
2018-09-10T23:17:47.851Z,71.41
2018-09-10T23:20:16.484Z,70.69
2018-09-10T23:22:45.139Z,70.44
2018-09-10T23:25:14.139Z,69.81
2018-09-10T23:27:42.758Z,70.05
2018-09-10T23:30:11.369Z,69.96
2018-09-10T23:32:40.012Z,70.81
2018-09-10T23:35:08.699Z,70.20
2018-09-10T23:37:38.418Z,70.10
2018-09-10T23:40:07.041Z,70.99
2018-09-10T23:42:35.620Z,70.44
2018-09-10T23:45:05.890Z,69.97
2018-09-10T23:47:34.493Z,69.04
2018-09-10T23:50:03.087Z,68.80
2018-09-10T23:52:31.704Z,68.90
2018-09-10T23:55:00.297Z,69.14
2018-09-10T23:57:28.943Z,70.04
2018-09-10T23:59:57.571Z,70.18
